Time;durP1;ratioP1;P1;durP2;ratioP2;P2;SDS_P1;SDS_P2;PMS_P1;PMS_P2;Temp;Humidity;BMP_temperature;BMP_pressure;BME280_temperature;BME280_humidity;BME280_pressure;Samples;Min_cycle;Max_cycle;Signal;HPM_P1;HPM_P2
2023/09/19 00:01:15;;;;;;;2.22;1.55;;;;;;;16.93;81.30;97980.03;5011303;28;20034;-86
2023/09/19 00:03:42;;;;;;;1.92;1.38;;;;;;;17.06;80.91;97995.31;4994992;28;20149;-87
2023/09/19 00:06:07;;;;;;;1.98;1.67;;;;;;;17.06;80.50;97974.56;4995424;28;20041;-87
2023/09/19 00:08:34;;;;;;;3.97;1.90;;;;;;;16.80;81.45;97994.41;5015050;28;20026;-87
2023/09/19 00:11:05;;;;;;;10.63;2.53;;;;;;;17.06;81.03;97987.25;5001024;28;20059;-87
2023/09/19 00:13:32;;;;;;;2.65;1.90;;;;;;;17.08;81.10;98003.94;4997005;28;20026;-87
2023/09/19 00:15:58;;;;;;;2.78;1.55;;;;;;;16.93;81.78;97994.31;5000066;28;20030;-87
2023/09/19 00:18:32;;;;;;;2.42;1.63;;;;;;;17.11;80.51;97992.50;5011107;28;20034;-87
2023/09/19 00:20:58;;;;;;;2.10;1.40;;;;;;;17.05;81.37;98007.22;5009975;28;20030;-87
2023/09/19 00:23:24;;;;;;;7.50;2.20;;;;;;;17.01;81.12;97995.50;5008170;28;20109;-88
2023/09/19 00:25:50;;;;;;;3.35;2.00;;;;;;;16.83;80.95;97970.34;5012833;28;20061;-87
2023/09/19 00:28:18;;;;;;;5.00;1.60;;;;;;;16.70;81.19;97967.72;5028572;28;20033;-87
2023/09/19 00:30:44;;;;;;;1.73;1.63;;;;;;;17.09;81.33;98014.41;5014541;28;20029;-87
2023/09/19 00:33:11;;;;;;;2.35;1.88;;;;;;;16.78;81.72;97983.16;5010997;28;20053;-88
2023/09/19 00:35:37;;;;;;;5.25;2.00;;;;;;;16.92;81.59;98008.13;5008099;28;20045;-87
2023/09/19 00:38:03;;;;;;;3.30;2.17;;;;;;;16.85;81.83;98011.25;4977270;28;20883;-87
2023/09/19 00:40:30;;;;;;;5.82;2.55;;;;;;;16.86;82.05;98002.06;5011958;28;20026;-87
2023/09/19 00:43:00;;;;;;;2.30;1.75;;;;;;;17.08;81.36;98030.91;4993897;28;20540;-87
2023/09/19 00:45:26;;;;;;;2.13;1.80;;;;;;;16.85;82.11;98024.75;5009043;28;20473;-87
2023/09/19 00:47:51;;;;;;;3.40;2.20;;;;;;;16.87;82.36;98027.13;4993274;28;20117;-87
2023/09/19 00:50:19;;;;;;;3.13;1.88;;;;;;;16.79;81.90;98007.13;4991448;28;20045;-86
2023/09/19 00:52:47;;;;;;;2.90;2.58;;;;;;;16.87;82.65;98013.63;4979156;28;20026;-87
2023/09/19 00:55:15;;;;;;;2.47;2.08;;;;;;;16.89;82.20;98027.59;5007781;28;20084;-87
2023/09/19 00:57:41;;;;;;;3.75;2.25;;;;;;;17.02;81.92;98034.81;5007584;28;20026;-87
2023/09/19 01:00:12;;;;;;;5.43;2.17;;;;;;;16.89;81.84;98023.00;5007351;28;20084;-87
2023/09/19 01:02:37;;;;;;;6.63;2.08;;;;;;;16.95;82.01;98019.06;4994587;28;20037;-87
2023/09/19 01:05:07;;;;;;;2.63;2.13;;;;;;;16.99;81.85;98030.81;4994148;28;20034;-87
2023/09/19 01:07:35;;;;;;;2.90;2.40;;;;;;;16.89;81.68;98006.03;5010966;28;20025;-87
2023/09/19 01:10:05;;;;;;;2.92;2.13;;;;;;;16.87;82.17;98019.03;5012618;28;20049;-87
2023/09/19 01:13:00;;;;;;;4.55;2.72;;;;;;;16.86;82.31;98047.09;5014230;28;22120;-86
2023/09/19 01:15:44;;;;;;;8.60;2.55;;;;;;;16.93;81.84;98045.53;5029365;28;20509;-87
2023/09/19 01:18:21;;;;;;;3.85;1.92;;;;;;;16.78;82.15;98051.31;5011285;28;20033;-87
2023/09/19 01:20:49;;;;;;;3.05;2.50;;;;;;;16.86;82.48;98049.81;5012005;28;20029;-87
2023/09/19 01:23:29;;;;;;;3.50;2.20;;;;;;;16.78;81.63;98032.47;5010117;28;20021;-87
2023/09/19 01:26:19;;;;;;;4.88;2.13;;;;;;;16.77;82.12;98048.94;5013336;28;20033;-86
2023/09/19 01:28:57;;;;;;;2.35;1.90;;;;;;;16.72;82.10;98043.66;5012681;28;20486;-87
2023/09/19 01:31:24;;;;;;;12.43;2.50;;;;;;;16.84;81.51;98049.31;5011834;28;20029;-85
2023/09/19 01:34:00;;;;;;;3.47;2.78;;;;;;;16.62;81.78;98019.69;4994151;28;20095;-86
2023/09/19 01:36:28;;;;;;;7.20;2.85;;;;;;;16.78;81.75;98056.72;5007267;28;20026;-86
2023/09/19 01:38:54;;;;;;;4.25;2.65;;;;;;;16.65;81.54;98032.53;4993737;28;20044;-86
2023/09/19 01:41:29;;;;;;;5.07;2.33;;;;;;;16.71;81.82;98066.34;4994321;28;20448;-86
2023/09/19 01:43:56;;;;;;;2.60;2.25;;;;;;;16.50;81.75;98020.22;5006321;28;20068;-86
2023/09/19 01:46:28;;;;;;;2.70;2.10;;;;;;;16.68;81.84;98069.66;4993606;28;20056;-86
2023/09/19 01:49:15;;;;;;;4.30;2.30;;;;;;;16.61;82.39;98050.41;5003874;28;20041;-85
2023/09/19 01:52:19;;;;;;;3.42;2.45;;;;;;;16.65;82.18;98059.47;5021985;28;20465;-86
2023/09/19 01:54:59;;;;;;;4.10;2.30;;;;;;;16.42;82.65;98061.34;5026753;28;20026;-87
2023/09/19 01:57:35;;;;;;;3.78;2.50;;;;;;;16.63;82.13;98078.66;5013805;28;20037;-86
2023/09/19 02:00:06;;;;;;;4.10;2.58;;;;;;;16.42;82.32;98064.81;5013293;28;20038;-87
2023/09/19 02:02:44;;;;;;;3.70;2.45;;;;;;;16.43;82.69;98082.59;4996723;28;20064;-87
2023/09/19 02:05:11;;;;;;;5.38;2.80;;;;;;;16.29;82.78;98084.50;4997427;28;20393;-86
2023/09/19 02:07:38;;;;;;;4.82;2.50;;;;;;;16.66;82.42;98088.03;5028516;28;20104;-87
2023/09/19 02:10:07;;;;;;;7.90;2.47;;;;;;;16.39;81.79;98078.91;4995747;28;20597;-87
2023/09/19 02:12:33;;;;;;;4.78;2.40;;;;;;;16.28;82.48;98093.72;5011857;28;20037;-87
2023/09/19 02:14:59;;;;;;;7.50;2.92;;;;;;;16.35;82.43;98094.09;5016101;28;20033;-87
2023/09/19 02:17:27;;;;;;;8.32;2.78;;;;;;;16.36;81.99;98100.25;4996114;28;20136;-87
2023/09/19 02:19:54;;;;;;;6.40;2.92;;;;;;;16.39;81.89;98100.47;4999422;28;20057;-87
2023/09/19 02:22:20;;;;;;;7.20;2.83;;;;;;;16.28;82.92;98106.38;5014262;28;20247;-87
2023/09/19 02:24:47;;;;;;;4.70;2.60;;;;;;;16.22;82.23;98084.16;5012755;28;20038;-87
2023/09/19 02:27:15;;;;;;;4.35;3.13;;;;;;;16.48;81.16;98114.00;4980495;28;20034;-87
2023/09/19 02:29:41;;;;;;;4.70;2.95;;;;;;;15.82;82.57;98085.00;5013234;28;20032;-87
2023/09/19 02:32:07;;;;;;;8.50;2.95;;;;;;;16.32;82.05;98108.16;4982044;28;20022;-87
2023/09/19 02:34:32;;;;;;;4.25;3.08;;;;;;;16.20;81.48;98094.44;4995620;28;20029;-87
2023/09/19 02:36:58;;;;;;;4.63;3.22;;;;;;;16.38;81.35;98114.25;5012499;28;20037;-87
2023/09/19 02:39:23;;;;;;;4.43;2.70;;;;;;;16.33;81.45;98117.84;4993872;28;20042;-86
2023/09/19 02:41:49;;;;;;;4.55;2.97;;;;;;;15.81;82.35;98086.13;4993422;28;20034;-86
2023/09/19 02:44:15;;;;;;;5.22;3.40;;;;;;;16.18;81.43;98120.06;5010525;28;20406;-86
2023/09/19 02:46:40;;;;;;;5.45;2.90;;;;;;;16.26;80.89;98112.06;4992332;28;20036;-86
2023/09/19 02:49:06;;;;;;;4.18;3.13;;;;;;;16.06;81.67;98131.34;4993705;28;20485;-87
2023/09/19 02:51:32;;;;;;;3.67;3.30;;;;;;;15.97;81.16;98138.53;4994572;28;20022;-87
2023/09/19 02:53:59;;;;;;;7.20;3.05;;;;;;;15.54;80.86;98088.81;5012525;28;20033;-86
2023/09/19 02:56:25;;;;;;;5.38;4.03;;;;;;;15.69;80.83;98077.75;5012226;28;20046;-87
2023/09/19 02:58:51;;;;;;;7.13;3.45;;;;;;;16.10;80.20;98151.19;4995883;28;20044;-87
2023/09/19 03:01:18;;;;;;;3.90;3.53;;;;;;;16.16;80.12;98144.59;5012516;28;20033;-87
2023/09/19 03:03:44;;;;;;;4.35;3.67;;;;;;;15.93;79.53;98104.44;5012997;28;20033;-87
2023/09/19 03:06:10;;;;;;;5.13;4.40;;;;;;;15.96;79.75;98133.44;5009770;28;20072;-86
2023/09/19 03:08:39;;;;;;;6.00;3.55;;;;;;;15.85;80.38;98148.19;5008626;28;20026;-86
2023/09/19 03:11:05;;;;;;;6.53;4.07;;;;;;;15.92;80.61;98152.09;4992588;28;20034;-87
2023/09/19 03:13:32;;;;;;;3.72;3.28;;;;;;;16.24;79.52;98162.75;5008056;28;20034;-87
2023/09/19 03:15:58;;;;;;;6.95;3.60;;;;;;;16.14;79.20;98156.78;4991902;28;20092;-87
2023/09/19 03:18:26;;;;;;;5.07;4.22;;;;;;;16.09;79.49;98151.50;5009117;28;20038;-86
2023/09/19 03:20:54;;;;;;;6.22;3.92;;;;;;;15.87;79.91;98156.78;5008013;28;20025;-86
2023/09/19 03:23:20;;;;;;;3.88;3.58;;;;;;;15.99;79.29;98149.78;4990619;28;20026;-87
2023/09/19 03:25:46;;;;;;;5.50;3.60;;;;;;;15.99;79.90;98167.84;5021980;28;20418;-86
2023/09/19 03:28:12;;;;;;;6.30;4.18;;;;;;;16.04;78.85;98160.47;4991410;28;20065;-85
2023/09/19 03:30:38;;;;;;;7.78;4.50;;;;;;;16.14;78.64;98179.09;4973750;28;20061;-86
2023/09/19 03:33:04;;;;;;;6.03;4.05;;;;;;;15.82;79.89;98148.78;4994970;28;20038;-86
2023/09/19 03:35:30;;;;;;;5.97;3.83;;;;;;;15.91;79.08;98147.81;4989633;28;20030;-86
2023/09/19 03:37:56;;;;;;;3.70;3.40;;;;;;;15.99;78.79;98175.94;4992001;28;20029;-86
2023/09/19 03:40:23;;;;;;;5.03;4.15;;;;;;;15.69;79.19;98140.44;5009055;28;20029;-85
2023/09/19 03:42:48;;;;;;;10.02;3.72;;;;;;;15.90;78.99;98173.13;5004586;28;20021;-85
2023/09/19 03:45:15;;;;;;;5.28;4.00;;;;;;;15.91;78.79;98153.19;5005407;28;20034;-85
2023/09/19 03:47:41;;;;;;;6.82;4.07;;;;;;;15.89;78.86;98165.34;4971519;28;20505;-86
2023/09/19 03:50:08;;;;;;;5.70;3.63;;;;;;;15.96;78.49;98160.38;5005202;28;20025;-86
2023/09/19 03:52:34;;;;;;;10.65;4.82;;;;;;;15.82;78.17;98149.59;5005602;28;20061;-87
2023/09/19 03:54:59;;;;;;;7.53;4.80;;;;;;;15.97;77.73;98170.81;4987848;28;20080;-86
2023/09/19 03:57:25;;;;;;;7.07;4.10;;;;;;;15.93;77.61;98161.75;4988675;28;20029;-86
2023/09/19 03:59:53;;;;;;;4.15;3.63;;;;;;;15.89;77.58;98152.69;4989514;28;20061;-86
2023/09/19 04:02:24;;;;;;;5.38;3.75;;;;;;;15.85;77.37;98159.78;4986089;28;20064;-86
2023/09/19 04:04:51;;;;;;;6.45;4.45;;;;;;;15.86;77.86;98166.72;4976425;28;20033;-86
2023/09/19 04:07:18;;;;;;;7.90;4.25;;;;;;;15.91;77.42;98177.41;5003621;28;20033;-85
2023/09/19 04:09:45;;;;;;;4.70;3.75;;;;;;;15.63;78.16;98167.72;5003600;28;20036;-85
2023/09/19 04:12:11;;;;;;;9.82;4.68;;;;;;;15.63;77.90;98168.53;5003813;28;20134;-85
2023/09/19 04:14:36;;;;;;;5.68;3.90;;;;;;;15.63;78.11;98183.88;4972728;28;20034;-86
2023/09/19 04:17:02;;;;;;;8.07;4.20;;;;;;;15.69;79.06;98180.78;4975589;28;20040;-86
2023/09/19 04:19:28;;;;;;;6.18;4.80;;;;;;;15.69;78.86;98193.44;4986820;28;20410;-86
2023/09/19 04:21:53;;;;;;;4.05;3.75;;;;;;;15.71;78.13;98180.47;5008097;28;20028;-86
2023/09/19 04:24:19;;;;;;;5.30;4.43;;;;;;;15.73;78.14;98191.75;4976616;28;20446;-86
2023/09/19 04:26:45;;;;;;;5.47;4.18;;;;;;;15.63;78.68;98205.41;4991551;28;20049;-86
2023/09/19 04:29:11;;;;;;;6.28;4.32;;;;;;;15.70;79.10;98208.50;4987748;28;20038;-86
2023/09/19 04:31:37;;;;;;;9.57;5.00;;;;;;;15.60;78.64;98193.31;4993278;28;20037;-86
2023/09/19 04:34:03;;;;;;;4.80;4.30;;;;;;;15.65;78.19;98203.19;4990582;28;20524;-86
2023/09/19 04:36:29;;;;;;;5.40;4.25;;;;;;;15.71;78.06;98191.25;5005579;28;20029;-86
2023/09/19 04:38:55;;;;;;;6.20;4.57;;;;;;;15.68;78.06;98194.53;4991271;28;20053;-86
2023/09/19 04:41:22;;;;;;;4.75;4.30;;;;;;;15.68;78.09;98200.69;4996947;28;20576;-86
2023/09/19 04:43:48;;;;;;;8.40;4.97;;;;;;;15.77;78.11;98216.19;5013849;28;20037;-87
2023/09/19 04:46:13;;;;;;;6.78;4.57;;;;;;;15.68;78.26;98208.78;4997345;28;20516;-85
2023/09/19 04:48:39;;;;;;;7.55;4.50;;;;;;;15.69;78.14;98193.44;4994480;28;20040;-87
2023/09/19 04:51:05;;;;;;;6.65;5.65;;;;;;;15.73;77.63;98199.81;4992423;28;21589;-87
2023/09/19 04:53:30;;;;;;;7.90;4.95;;;;;;;15.46;77.62;98157.56;5011352;28;20034;-85
2023/09/19 04:55:56;;;;;;;9.20;4.28;;;;;;;15.37;77.41;98153.13;5009863;28;20025;-85
2023/09/19 04:58:22;;;;;;;6.82;4.95;;;;;;;15.72;77.40;98217.88;4994534;28;20042;-85
2023/09/19 05:00:48;;;;;;;6.72;4.10;;;;;;;15.33;77.57;98179.00;4994116;28;20562;-85
2023/09/19 05:03:13;;;;;;;7.00;4.82;;;;;;;15.75;77.64;98222.66;4996595;28;20030;-85
2023/09/19 05:05:41;;;;;;;10.60;5.20;;;;;;;15.58;77.03;98197.41;5012414;28;20084;-85
2023/09/19 05:08:08;;;;;;;4.82;4.30;;;;;;;15.66;77.29;98221.72;5000264;28;20029;-85
2023/09/19 05:10:34;;;;;;;7.75;4.97;;;;;;;15.50;77.59;98193.53;5015048;28;20030;-85
2023/09/19 05:13:00;;;;;;;5.57;4.03;;;;;;;15.66;77.13;98215.56;5007002;28;20103;-84
2023/09/19 05:15:26;;;;;;;11.40;4.57;;;;;;;15.49;77.85;98205.34;4992215;28;20038;-84
2023/09/19 05:17:54;;;;;;;5.50;4.22;;;;;;;15.81;76.63;98212.59;5013642;28;20385;-84
2023/09/19 05:20:29;;;;;;;5.22;4.07;;;;;;;15.60;77.23;98222.13;5011289;28;20033;-85
2023/09/19 05:23:08;;;;;;;6.03;4.03;;;;;;;15.61;77.22;98224.53;5018272;28;20531;-84
2023/09/19 05:25:38;;;;;;;8.13;4.22;;;;;;;15.58;77.30;98219.72;5004614;28;20505;-84
2023/09/19 05:28:05;;;;;;;5.68;3.42;;;;;;;15.64;77.20;98217.72;5009406;28;20022;-84
2023/09/19 05:30:32;;;;;;;13.52;4.07;;;;;;;15.59;77.43;98207.09;5018940;28;20580;-84
2023/09/19 05:32:58;;;;;;;15.30;4.20;;;;;;;15.50;77.34;98206.16;5013851;28;20390;-84
2023/09/19 05:35:23;;;;;;;8.18;3.78;;;;;;;15.37;77.39;98185.38;4981472;28;20033;-84
2023/09/19 05:37:54;;;;;;;7.75;4.00;;;;;;;15.60;77.52;98220.22;5013557;28;20547;-84
2023/09/19 05:40:20;;;;;;;11.43;4.13;;;;;;;15.57;77.17;98215.44;4997234;28;20540;-84
2023/09/19 05:42:46;;;;;;;6.47;5.13;;;;;;;15.66;77.27;98234.41;5013076;28;20045;-84
2023/09/19 05:45:12;;;;;;;7.10;4.18;;;;;;;15.64;77.26;98236.56;5016549;28;20555;-85
2023/09/19 05:47:43;;;;;;;8.55;3.40;;;;;;;15.68;76.86;98234.91;4996957;28;20026;-85
2023/09/19 05:50:09;;;;;;;11.10;4.20;;;;;;;15.42;77.15;98199.53;5013392;28;20108;-85
2023/09/19 05:52:37;;;;;;;6.53;4.22;;;;;;;15.63;77.37;98251.13;5006381;28;20497;-84
2023/09/19 05:55:07;;;;;;;5.63;3.25;;;;;;;15.48;77.60;98249.50;5016342;28;20026;-85
2023/09/19 05:57:33;;;;;;;10.63;3.60;;;;;;;15.37;78.39;98268.75;4992032;28;20026;-84
2023/09/19 05:59:58;;;;;;;11.70;3.75;;;;;;;15.48;78.03;98264.84;5003003;28;20444;-84
2023/09/19 06:02:26;;;;;;;5.75;3.72;;;;;;;15.62;76.99;98274.53;4974233;28;20053;-84
2023/09/19 06:04:53;;;;;;;9.13;4.15;;;;;;;15.37;77.55;98264.19;4995867;28;20504;-85
2023/09/19 06:07:18;;;;;;;9.43;3.67;;;;;;;15.20;78.14;98261.19;4977442;28;20076;-85
2023/09/19 06:09:43;;;;;;;7.18;3.70;;;;;;;15.54;77.07;98287.84;5009423;28;20029;-85
2023/09/19 06:12:09;;;;;;;6.47;3.45;;;;;;;15.34;77.88;98291.63;4994378;28;20040;-85
2023/09/19 06:14:34;;;;;;;9.65;4.57;;;;;;;15.33;77.63;98278.50;4979085;28;20026;-85
2023/09/19 06:17:00;;;;;;;6.72;3.47;;;;;;;15.33;77.60;98302.69;5008408;28;20040;-84
2023/09/19 06:19:25;;;;;;;6.03;3.00;;;;;;;15.35;77.44;98284.38;5019278;28;20159;-84
2023/09/19 06:21:54;;;;;;;10.05;3.88;;;;;;;15.37;77.84;98319.84;4978380;28;20037;-85
2023/09/19 06:24:21;;;;;;;11.85;3.65;;;;;;;15.33;77.87;98303.47;5010035;28;20075;-85
2023/09/19 06:26:47;;;;;;;10.82;3.55;;;;;;;15.48;77.36;98311.38;5009063;28;20213;-84
2023/09/19 06:29:15;;;;;;;9.73;3.45;;;;;;;15.45;77.19;98316.50;4990571;28;20052;-85
2023/09/19 06:31:41;;;;;;;8.90;4.15;;;;;;;15.27;77.25;98288.50;4988938;28;20496;-85
2023/09/19 06:34:07;;;;;;;10.23;3.35;;;;;;;15.51;76.96;98332.28;4993591;28;20208;-84
2023/09/19 06:36:32;;;;;;;6.68;3.42;;;;;;;15.63;77.20;98329.94;4994846;28;20026;-84
2023/09/19 06:38:59;;;;;;;8.98;4.25;;;;;;;14.97;77.68;98279.03;4999279;28;20030;-84
2023/09/19 06:41:24;;;;;;;10.98;3.38;;;;;;;15.53;77.40;98338.16;4987935;28;20034;-85
2023/09/19 06:43:53;;;;;;;6.80;3.20;;;;;;;15.59;76.80;98347.78;5014403;28;20029;-84
2023/09/19 06:46:19;;;;;;;8.32;3.25;;;;;;;15.59;77.81;98363.91;4995517;28;20030;-85
2023/09/19 06:48:47;;;;;;;5.80;3.13;;;;;;;15.43;77.39;98343.72;4997392;28;20067;-84
2023/09/19 06:51:15;;;;;;;10.32;3.70;;;;;;;15.73;77.05;98367.44;4969020;28;20030;-84
2023/09/19 06:53:41;;;;;;;8.13;3.33;;;;;;;15.63;77.53;98369.50;5005778;28;20038;-85
2023/09/19 06:56:07;;;;;;;10.23;3.55;;;;;;;15.31;76.96;98302.97;4992707;28;20378;-84
2023/09/19 06:58:32;;;;;;;5.53;3.53;;;;;;;15.66;77.47;98371.63;5016718;28;20408;-85
2023/09/19 07:00:57;;;;;;;9.32;3.97;;;;;;;15.38;78.13;98356.38;5014582;28;20164;-84
2023/09/19 07:03:26;;;;;;;13.25;4.13;;;;;;;15.68;76.66;98375.59;5007571;28;20049;-85
2023/09/19 07:05:52;;;;;;;9.60;3.58;;;;;;;15.55;77.12;98359.41;5010049;28;20029;-85
2023/09/19 07:08:19;;;;;;;4.28;2.85;;;;;;;15.64;75.80;98357.63;5009326;28;20549;-85
2023/09/19 07:10:48;;;;;;;6.68;3.70;;;;;;;15.75;75.63;98369.84;5009084;28;20022;-85
2023/09/19 07:13:16;;;;;;;8.70;4.05;;;;;;;15.71;75.86;98371.53;4995407;28;20054;-85
2023/09/19 07:15:46;;;;;;;8.07;4.15;;;;;;;15.76;75.58;98371.44;4995015;28;20022;-85
2023/09/19 07:18:14;;;;;;;8.98;3.40;;;;;;;15.62;75.65;98367.88;4996587;28;20060;-85
2023/09/19 07:20:40;;;;;;;5.93;3.60;;;;;;;15.77;75.61;98375.72;4979219;28;20366;-85
2023/09/19 07:23:06;;;;;;;11.30;3.92;;;;;;;15.79;75.12;98359.31;5013610;28;20080;-85
2023/09/19 07:25:31;;;;;;;11.10;3.80;;;;;;;15.77;75.12;98376.53;5005893;28;20088;-85
2023/09/19 07:27:59;;;;;;;8.80;3.88;;;;;;;15.70;75.19;98368.03;4980575;28;20049;-85
2023/09/19 07:30:26;;;;;;;8.93;3.42;;;;;;;15.68;75.51;98369.44;5012378;28;20033;-85
2023/09/19 07:32:52;;;;;;;8.35;4.15;;;;;;;15.67;75.58;98363.25;5003721;28;20375;-85
2023/09/19 07:35:19;;;;;;;6.35;3.53;;;;;;;15.81;75.12;98376.75;4992148;28;20040;-85
2023/09/19 07:37:49;;;;;;;9.70;3.80;;;;;;;15.70;74.89;98367.25;5013170;28;20482;-85
2023/09/19 07:40:18;;;;;;;6.85;3.47;;;;;;;15.71;74.67;98368.84;4993106;28;20442;-85
2023/09/19 07:42:46;;;;;;;8.43;3.90;;;;;;;15.63;74.36;98358.75;5011226;28;20783;-85
2023/09/19 07:45:14;;;;;;;6.97;3.78;;;;;;;15.84;74.24;98376.16;4993292;28;20092;-86
2023/09/19 07:47:49;;;;;;;10.40;4.93;;;;;;;15.90;74.43;98382.28;4995083;28;20026;-85
2023/09/19 07:50:19;;;;;;;5.57;3.50;;;;;;;15.86;74.09;98386.66;5009396;28;20628;-86
2023/09/19 07:52:52;;;;;;;6.70;3.35;;;;;;;15.90;73.78;98380.34;5010106;28;20041;-86
2023/09/19 07:55:19;;;;;;;7.88;4.10;;;;;;;15.91;73.58;98400.00;5011716;28;20536;-85
2023/09/19 07:57:45;;;;;;;9.63;4.03;;;;;;;15.94;73.05;98391.34;4974758;28;20076;-85
2023/09/19 08:00:11;;;;;;;9.45;4.03;;;;;;;15.76;72.49;98371.44;5009479;28;20033;-85
2023/09/19 08:02:40;;;;;;;9.45;3.92;;;;;;;15.82;72.17;98378.34;4989929;28;20036;-85
2023/09/19 08:05:06;;;;;;;10.57;4.43;;;;;;;15.85;71.62;98387.72;4979584;28;20030;-85
2023/09/19 08:07:39;;;;;;;8.90;3.63;;;;;;;15.58;71.33;98358.81;5011459;28;20033;-86
2023/09/19 08:10:08;;;;;;;9.20;4.13;;;;;;;15.90;71.32;98398.41;5003106;28;20440;-86
2023/09/19 08:12:36;;;;;;;5.88;4.28;;;;;;;15.95;71.14;98399.13;4995200;28;20031;-86
2023/09/19 08:15:07;;;;;;;8.27;4.13;;;;;;;16.03;70.48;98401.13;5012641;28;20037;-86
2023/09/19 08:17:36;;;;;;;13.52;4.70;;;;;;;15.87;70.74;98399.81;4978402;28;20022;-86
2023/09/19 08:20:03;;;;;;;9.30;4.82;;;;;;;15.50;70.54;98338.75;5006760;28;20061;-86
2023/09/19 08:22:28;;;;;;;9.02;4.70;;;;;;;15.85;70.09;98402.00;5006442;28;20390;-86
2023/09/19 08:24:53;;;;;;;8.98;4.55;;;;;;;15.82;70.91;98397.19;5000550;28;20041;-86
2023/09/19 08:27:19;;;;;;;12.82;4.75;;;;;;;15.85;70.13;98401.19;5038200;28;20037;-86
2023/09/19 08:29:44;;;;;;;12.30;4.38;;;;;;;15.81;70.36;98400.97;4974676;28;20042;-86
2023/09/19 08:32:10;;;;;;;11.50;4.80;;;;;;;15.79;69.82;98396.97;4986490;28;20160;-86
2023/09/19 08:34:38;;;;;;;9.65;4.25;;;;;;;15.81;69.71;98395.59;4985375;28;20041;-86
2023/09/19 08:37:03;;;;;;;9.88;3.83;;;;;;;15.97;69.46;98409.59;4995702;28;20026;-86
2023/09/19 08:39:31;;;;;;;8.05;3.80;;;;;;;15.91;69.95;98416.97;4977906;28;20029;-86
2023/09/19 08:42:00;;;;;;;11.98;4.35;;;;;;;16.02;69.37;98412.22;5012375;28;20022;-86
2023/09/19 08:44:30;;;;;;;11.10;4.13;;;;;;;15.69;69.50;98369.13;4978388;28;20100;-86
2023/09/19 08:47:05;;;;;;;7.65;3.55;;;;;;;16.08;69.36;98411.03;4994583;28;20040;-87
2023/09/19 08:49:53;;;;;;;10.47;3.30;;;;;;;15.99;69.74;98408.22;5009883;28;20390;-86
2023/09/19 08:52:40;;;;;;;7.28;3.92;;;;;;;15.99;70.45;98400.13;5009777;28;20021;-87
2023/09/19 08:55:09;;;;;;;10.43;4.22;;;;;;;16.09;69.47;98397.28;5010551;28;20435;-86
2023/09/19 08:57:41;;;;;;;10.13;3.58;;;;;;;16.19;69.72;98410.56;5011054;28;20036;-87
2023/09/19 09:00:11;;;;;;;9.20;4.07;;;;;;;16.25;69.31;98408.59;5002843;28;20029;-87
2023/09/19 09:02:41;;;;;;;14.30;3.78;;;;;;;16.22;69.25;98419.97;4994424;28;20049;-87
2023/09/19 09:05:09;;;;;;;5.30;3.08;;;;;;;16.03;68.77;98393.06;4990850;28;20030;-87
2023/09/19 09:07:36;;;;;;;8.35;3.38;;;;;;;16.02;68.90;98396.88;5012484;28;20466;-87
2023/09/19 09:10:06;;;;;;;12.35;3.17;;;;;;;16.03;69.14;98397.66;5009547;28;20033;-87
2023/09/19 09:12:31;;;;;;;6.55;3.05;;;;;;;16.27;69.47;98409.88;5011942;28;20026;-86
2023/09/19 09:14:57;;;;;;;10.25;3.28;;;;;;;16.25;69.06;98414.78;4977701;28;20037;-87
2023/09/19 09:17:26;;;;;;;15.52;3.45;;;;;;;16.06;68.82;98381.72;4994651;28;20389;-87
2023/09/19 09:19:54;;;;;;;9.77;3.38;;;;;;;15.98;69.18;98389.66;5009362;28;20397;-87
2023/09/19 09:22:23;;;;;;;14.35;4.07;;;;;;;16.32;68.89;98417.88;5010187;28;20405;-87
2023/09/19 09:25:04;;;;;;;9.52;3.13;;;;;;;16.27;69.63;98409.88;4991396;28;20085;-87
2023/09/19 09:27:31;;;;;;;8.32;3.15;;;;;;;16.29;69.06;98415.00;4988935;28;20433;-87
2023/09/19 09:29:56;;;;;;;8.32;3.22;;;;;;;16.32;68.83;98400.91;5005400;28;20097;-87
2023/09/19 09:32:24;;;;;;;9.90;3.28;;;;;;;16.34;68.76;98402.22;4995248;28;20030;-87
2023/09/19 09:34:54;;;;;;;19.05;4.10;;;;;;;16.55;68.40;98412.69;5008189;28;20038;-87
2023/09/19 09:37:21;;;;;;;9.52;3.00;;;;;;;16.68;68.05;98428.06;4995077;28;20088;-87
2023/09/19 09:39:58;;;;;;;8.38;3.08;;;;;;;16.68;68.77;98418.09;5013053;28;20112;-87
2023/09/19 09:42:41;;;;;;;9.63;2.85;;;;;;;16.78;68.24;98409.00;5006871;28;20072;-87
2023/09/19 09:45:37;;;;;;;6.85;2.53;;;;;;;16.75;69.48;98404.22;4996892;28;20036;-87
2023/09/19 09:48:03;;;;;;;11.63;3.15;;;;;;;16.84;67.53;98410.50;5005942;28;20030;-88
2023/09/19 09:53:33;;;;;;;6.53;3.42;;;;;;;16.78;68.02;98395.50;4995426;28;20085;-87
2023/09/19 09:56:02;;;;;;;8.40;3.13;;;;;;;16.89;67.22;98426.56;4981393;28;20498;-87
2023/09/19 09:58:32;;;;;;;8.85;2.95;;;;;;;16.83;67.40;98430.47;4979367;28;20482;-88
2023/09/19 10:01:01;;;;;;;11.32;4.40;;;;;;;16.70;66.89;98423.16;4997057;28;20682;-88
2023/09/19 10:03:38;;;;;;;14.95;4.03;;;;;;;16.79;66.49;98416.81;5013909;28;20108;-88
2023/09/19 10:06:18;;;;;;;11.95;3.47;;;;;;;16.95;67.43;98425.41;5009550;28;20027;-87
2023/09/19 10:09:11;;;;;;;13.18;3.42;;;;;;;17.11;66.82;98419.38;4984969;28;20026;-87
2023/09/19 10:11:44;;;;;;;10.90;3.45;;;;;;;16.95;66.53;98420.00;5012020;28;20503;-88
2023/09/19 10:14:16;;;;;;;9.52;3.72;;;;;;;16.87;66.43;98413.41;5010065;28;20026;-88
2023/09/19 10:16:46;;;;;;;8.32;3.55;;;;;;;16.91;66.05;98413.59;5012593;28;20034;-88
2023/09/19 10:19:22;;;;;;;6.75;3.42;;;;;;;17.02;65.96;98420.38;4988719;28;20080;-88
2023/09/19 10:21:49;;;;;;;10.82;3.15;;;;;;;17.01;65.22;98400.72;5004290;28;20034;-88
2023/09/19 10:24:17;;;;;;;10.20;3.40;;;;;;;17.10;65.90;98414.31;4986284;28;20061;-87
2023/09/19 10:26:45;;;;;;;10.75;3.53;;;;;;;16.98;65.00;98387.03;5013768;28;20037;-88
2023/09/19 10:29:13;;;;;;;11.50;3.47;;;;;;;17.31;64.78;98414.66;5015312;28;20029;-87
2023/09/19 10:31:47;;;;;;;8.07;3.30;;;;;;;17.20;64.61;98400.59;4999769;28;20048;-88
2023/09/19 10:34:14;;;;;;;7.65;2.90;;;;;;;17.45;64.30;98443.22;5013214;28;20034;-87
2023/09/19 10:36:46;;;;;;;10.02;3.33;;;;;;;17.13;64.85;98373.22;5015023;28;20029;-87
2023/09/19 10:39:18;;;;;;;11.80;3.85;;;;;;;17.47;64.59;98427.53;5004966;28;20117;-88
2023/09/19 10:41:53;;;;;;;12.07;4.07;;;;;;;17.25;63.82;98403.97;4998985;28;20026;-88
2023/09/19 10:44:25;;;;;;;12.57;4.15;;;;;;;17.54;64.75;98427.94;5018055;28;20025;-87
2023/09/19 10:46:52;;;;;;;9.32;3.65;;;;;;;17.68;63.39;98431.41;5017090;28;20032;-87
2023/09/19 10:49:19;;;;;;;8.98;3.35;;;;;;;17.78;63.74;98427.66;5012752;28;20026;-87
2023/09/19 10:51:47;;;;;;;9.13;3.83;;;;;;;17.84;64.81;98432.63;4996515;28;20029;-88
2023/09/19 10:54:19;;;;;;;11.88;3.88;;;;;;;17.86;64.80;98416.16;5005581;28;20017;-88
2023/09/19 10:56:51;;;;;;;7.95;3.00;;;;;;;17.68;63.98;98404.41;4997617;28;20062;-87
2023/09/19 10:59:21;;;;;;;6.88;2.88;;;;;;;17.82;64.01;98418.66;4996309;28;20021;-88
2023/09/19 11:02:01;;;;;;;4.55;2.25;;;;;;;17.68;62.65;98433.31;5012488;28;20033;-88
2023/09/19 11:04:33;;;;;;;13.05;3.15;;;;;;;17.53;62.47;98414.75;5006858;28;20060;-88
2023/09/19 11:07:11;;;;;;;15.10;3.72;;;;;;;17.56;62.62;98401.44;4994688;28;20555;-88
2023/09/19 11:09:50;;;;;;;6.60;2.90;;;;;;;17.67;61.95;98426.31;5012084;28;20030;-88
2023/09/19 11:12:31;;;;;;;11.18;3.47;;;;;;;17.75;61.69;98421.00;5011442;28;20030;-88
2023/09/19 11:14:58;;;;;;;8.63;3.25;;;;;;;17.82;62.00;98405.16;5011623;28;20084;-88
2023/09/19 11:17:31;;;;;;;6.88;2.78;;;;;;;17.82;61.98;98407.84;5018491;28;20050;-88
2023/09/19 11:20:23;;;;;;;14.57;3.25;;;;;;;17.90;62.15;98404.44;5009969;28;20029;-88
2023/09/19 11:25:41;;;;;;;10.75;3.35;;;;;;;17.91;60.89;98411.41;5012281;28;20437;-88
2023/09/19 11:28:17;;;;;;;7.72;2.85;;;;;;;17.90;61.25;98415.22;5002453;28;20042;-88
2023/09/19 11:30:45;;;;;;;8.98;2.92;;;;;;;17.78;61.28;98412.25;5009898;28;20022;-88
2023/09/19 11:33:41;;;;;;;6.38;3.08;;;;;;;17.56;60.14;98373.66;5008528;28;20092;-87
2023/09/19 11:36:14;;;;;;;6.57;2.65;;;;;;;17.93;60.34;98413.84;5000402;28;20040;-88
2023/09/19 11:41:38;;;;;;;9.00;3.05;;;;;;;18.14;60.16;98420.31;5011745;28;20034;-87
2023/09/19 11:44:04;;;;;;;10.32;2.72;;;;;;;18.28;60.34;98420.25;5003758;28;20045;-88
2023/09/19 11:46:51;;;;;;;9.38;3.20;;;;;;;18.19;61.08;98422.09;5013227;28;20496;-87
2023/09/19 11:49:23;;;;;;;5.93;3.00;;;;;;;18.04;60.30;98385.47;5008023;28;20029;-88